KRCM

Skyhaven Airport

Warrensburg, Missouri, USA
METAR KRCM 180215Z AUTO 00000KT 10SM CLR 24/18 A3002 RMK AO2
Observed Flight Rules
Aug-18 @ 02:15 UTC (16 minutes ago) Visual Flight Rules
Visibility Clouds
10 miles
  • Clear skies
Temperatures Readings
Current 24°C / 75°F
Dewpoint 18°C / 64°F
Humidity 69%
Altimeter 30.02" Hg
Pressure 1017 hPa
Elevation 244
METAR KRCM 180215Z AUTO 00000KT 10SM CLR 24/18 A3002 RMK AO2
Observed Flight Rules
Aug-18 @ 02:15 UTC
(16 minutes ago)
VFR
Clouds
  • Clear skies
Temperature Dewpoint
24°C / 75°F 18°C / 64°F
Humidity Altimeter Pressure
69% 30.02" Hg 1017 hPa